Terminal Aerodrome Forecast
Issued by NWS Sioux Falls, SD

Home | Current Version | Previous Version | Text Only | Print | Product List | Glossary On
Versions: 1 2 3 4 5 6 7 8 9 10 11 12 13 14 15 16 17 18 19 20 21 22 23 24 25 26 27 28
000
FTUS43 KFSD 241700
TAFSUX
TAF
KSUX 241720Z 2418/2518 25012KT P6SM FEW035 SCT100
     FM250200 VRB03KT P6SM SKC
     FM250900 29005KT P6SM SCT100=

USA.gov is the U.S. government's official web portal to all federal, state and local government web resources and services.